createdAt,value
2023-12-24T00:00:19.693Z,1008.19
2023-12-24T00:00:47.430Z,1008.09
2023-12-24T00:01:17.195Z,1008.09
2023-12-24T00:01:47.629Z,1008.30
2023-12-24T00:02:17.187Z,1008.30
2023-12-24T00:02:47.551Z,1007.99
2023-12-24T00:03:18.602Z,1007.99
2023-12-24T00:03:50.477Z,1008.30
2023-12-24T00:04:21.190Z,1008.30
2023-12-24T00:04:52.085Z,1008.40
2023-12-24T00:05:26.867Z,1008.40
2023-12-24T00:05:58.208Z,1008.19
2023-12-24T00:06:24.399Z,1008.19
2023-12-24T00:06:57.394Z,1008.09
2023-12-24T00:07:26.315Z,1008.09
2023-12-24T00:07:57.963Z,1007.89
2023-12-24T00:08:28.869Z,1007.89
2023-12-24T00:09:00.134Z,1008.40
2023-12-24T00:09:30.736Z,1008.40
2023-12-24T00:10:04.806Z,1008.40
2023-12-24T00:10:34.740Z,1008.40
2023-12-24T00:11:04.798Z,1008.19
2023-12-24T00:11:37.792Z,1008.19
2023-12-24T00:12:08.543Z,1008.19
2023-12-24T00:12:37.178Z,1008.19
2023-12-24T00:13:07.587Z,1008.19
2023-12-24T00:13:38.945Z,1008.30
2023-12-24T00:14:09.235Z,1008.30
2023-12-24T00:14:41.415Z,1008.19
2023-12-24T00:15:18.226Z,1008.19
2023-12-24T00:15:43.327Z,1008.19
2023-12-24T00:16:13.879Z,1008.19
2023-12-24T00:16:47.600Z,1008.19
2023-12-24T00:17:16.659Z,1008.19
2023-12-24T00:17:46.384Z,1008.30
2023-12-24T00:18:19.199Z,1008.30
2023-12-24T00:18:47.975Z,1008.40
2023-12-24T00:19:19.255Z,1008.40
2023-12-24T00:19:51.514Z,1008.19
2023-12-24T00:20:24.688Z,1008.19
2023-12-24T00:20:53.526Z,1008.30
2023-12-24T00:21:24.267Z,1008.30
2023-12-24T00:21:55.678Z,1008.19
2023-12-24T00:22:25.701Z,1008.19
2023-12-24T00:22:58.224Z,1008.30
2023-12-24T00:23:28.932Z,1008.30
2023-12-24T00:23:59.214Z,1008.09
2023-12-24T00:24:32.893Z,1008.09
2023-12-24T00:25:00.918Z,1008.30
2023-12-24T00:25:32.705Z,1008.30
2023-12-24T00:26:03.268Z,1008.30
2023-12-24T00:26:33.953Z,1008.30
2023-12-24T00:27:04.767Z,1008.30
2023-12-24T00:27:36.664Z,1008.19
2023-12-24T00:28:07.172Z,1008.19
2023-12-24T00:28:37.726Z,1008.09
2023-12-24T00:29:11.425Z,1008.09
2023-12-24T00:29:41.994Z,1008.09
2023-12-24T00:30:16.338Z,1008.09
2023-12-24T00:30:44.507Z,1008.30
2023-12-24T00:31:15.785Z,1008.30
2023-12-24T00:31:45.270Z,1008.19
2023-12-24T00:32:17.656Z,1008.19
2023-12-24T00:32:47.735Z,1008.30
2023-12-24T00:33:17.992Z,1008.30
2023-12-24T00:33:49.294Z,1008.19
2023-12-24T00:34:20.649Z,1008.19
2023-12-24T00:34:50.035Z,1008.19
2023-12-24T00:35:23.388Z,1008.19
2023-12-24T00:35:56.128Z,1008.40
2023-12-24T00:36:24.335Z,1008.40
2023-12-24T00:36:54.544Z,1008.19
2023-12-24T00:37:26.762Z,1008.19
2023-12-24T00:37:58.901Z,1008.19
2023-12-24T00:38:30.774Z,1008.19
2023-12-24T00:39:00.231Z,1008.40
2023-12-24T00:39:31.570Z,1008.40
2023-12-24T00:40:00.581Z,1008.40
2023-12-24T00:40:36.350Z,1008.40
2023-12-24T00:41:06.833Z,1008.30
2023-12-24T00:41:37.170Z,1008.30
2023-12-24T00:42:38.018Z,1008.50
2023-12-24T00:43:08.996Z,1008.09
2023-12-24T00:43:38.057Z,1008.50
2023-12-24T00:44:10.626Z,1008.50
2023-12-24T00:44:42.043Z,1008.40
2023-12-24T00:45:15.615Z,1008.40
2023-12-24T00:45:42.339Z,1008.30
2023-12-24T00:46:16.529Z,1008.30
2023-12-24T00:46:45.384Z,1008.50
2023-12-24T00:47:15.995Z,1008.50
2023-12-24T00:47:48.034Z,1008.30
2023-12-24T00:48:17.892Z,1008.30
2023-12-24T00:48:48.854Z,1008.60
2023-12-24T00:49:22.116Z,1008.60
2023-12-24T00:49:50.660Z,1008.40
2023-12-24T00:50:23.988Z,1008.40
2023-12-24T00:50:56.162Z,1008.30
2023-12-24T00:51:25.563Z,1008.30
2023-12-24T00:51:53.555Z,1008.19
2023-12-24T00:52:25.800Z,1008.19
2023-12-24T00:53:05.189Z,1008.30
2023-12-24T00:53:26.411Z,1008.30
2023-12-24T00:53:59.748Z,1008.40
2023-12-24T00:54:31.301Z,1008.40
2023-12-24T00:55:02.856Z,1008.30
2023-12-24T00:55:29.928Z,1008.30
2023-12-24T00:56:03.961Z,1008.19
2023-12-24T00:56:33.580Z,1008.19
2023-12-24T00:57:02.852Z,1008.09
2023-12-24T00:57:34.222Z,1008.09
2023-12-24T00:58:05.197Z,1008.30
2023-12-24T00:58:36.416Z,1008.30
2023-12-24T00:59:08.592Z,1008.30
2023-12-24T00:59:37.861Z,1008.30
2023-12-24T01:00:13.911Z,1008.30
2023-12-24T01:01:01.547Z,1008.19
2023-12-24T01:01:11.122Z,1008.19
2023-12-24T01:01:41.193Z,1008.30
2023-12-24T01:02:12.150Z,1008.30
2023-12-24T01:02:45.554Z,1008.40
2023-12-24T01:03:13.912Z,1008.40
2023-12-24T01:03:44.372Z,1008.19
2023-12-24T01:04:17.555Z,1008.19
2023-12-24T01:04:47.545Z,1008.09
2023-12-24T01:05:18.471Z,1008.09
2023-12-24T01:05:49.046Z,1008.09
2023-12-24T01:06:21.070Z,1008.09
2023-12-24T01:06:51.570Z,1008.09
2023-12-24T01:07:21.602Z,1008.09
2023-12-24T01:07:52.481Z,1008.09
2023-12-24T01:08:24.191Z,1008.09
2023-12-24T01:08:58.381Z,1007.99
2023-12-24T01:09:46.023Z,1007.99
2023-12-24T01:09:58.556Z,1008.09
2023-12-24T01:10:55.888Z,1008.09
2023-12-24T01:12:12.892Z,1008.19
2023-12-24T01:12:31.521Z,1008.19
2023-12-24T01:13:02.578Z,1008.19
2023-12-24T01:13:34.420Z,1008.30
2023-12-24T01:14:05.049Z,1008.30
2023-12-24T01:14:34.107Z,1008.50
2023-12-24T01:15:52.021Z,1008.50
2023-12-24T01:16:09.722Z,1008.40
2023-12-24T01:16:39.668Z,1008.50
2023-12-24T01:17:16.751Z,1008.50
2023-12-24T01:17:44.444Z,1008.50
2023-12-24T01:18:14.881Z,1008.50
2023-12-24T01:18:46.159Z,1008.40
2023-12-24T01:19:14.922Z,1008.40
2023-12-24T01:19:49.641Z,1008.50
2023-12-24T01:20:22.248Z,1008.50
2023-12-24T01:20:50.814Z,1008.40
2023-12-24T01:21:31.176Z,1008.40
2023-12-24T01:21:53.967Z,1008.40
2023-12-24T01:22:23.709Z,1008.40
2023-12-24T01:22:54.065Z,1008.40
2023-12-24T01:23:24.426Z,1008.40
2023-12-24T01:23:56.045Z,1008.30
2023-12-24T01:24:28.165Z,1008.30
2023-12-24T01:24:59.349Z,1008.60
2023-12-24T01:25:28.950Z,1008.60
2023-12-24T01:26:00.398Z,1008.50
2023-12-24T01:26:30.960Z,1008.50
2023-12-24T01:27:01.198Z,1008.50
2023-12-24T01:27:31.839Z,1008.50
2023-12-24T01:28:02.877Z,1008.60
2023-12-24T01:28:35.004Z,1008.60
2023-12-24T01:29:06.392Z,1008.40
2023-12-24T01:29:36.717Z,1008.30
2023-12-24T01:30:10.703Z,1008.30
2023-12-24T01:30:41.224Z,1008.50
2023-12-24T01:31:08.336Z,1008.50
2023-12-24T01:31:41.985Z,1008.50
2023-12-24T01:32:13.517Z,1008.50
2023-12-24T01:32:44.922Z,1008.50
2023-12-24T01:33:31.692Z,1008.50
2023-12-24T01:33:45.791Z,1008.60
2023-12-24T01:34:22.379Z,1008.60
2023-12-24T01:34:48.755Z,1008.40
2023-12-24T01:35:18.781Z,1008.40
2023-12-24T01:35:49.950Z,1008.40
2023-12-24T01:36:33.944Z,1008.40
2023-12-24T01:36:49.558Z,1008.70
2023-12-24T01:37:21.621Z,1008.70
2023-12-24T01:37:53.973Z,1008.40
2023-12-24T01:38:23.342Z,1008.40
2023-12-24T01:38:55.133Z,1008.60
2023-12-24T01:39:24.248Z,1008.60
2023-12-24T01:39:55.927Z,1008.70
2023-12-24T01:40:31.064Z,1008.70
2023-12-24T01:41:00.479Z,1008.60
2023-12-24T01:41:30.745Z,1008.60
2023-12-24T01:42:18.780Z,1008.50
2023-12-24T01:42:34.371Z,1008.50
2023-12-24T01:43:05.583Z,1008.70
2023-12-24T01:43:32.390Z,1008.70
2023-12-24T01:44:06.069Z,1008.70
2023-12-24T01:44:36.060Z,1008.50
2023-12-24T01:45:08.991Z,1008.50
2023-12-24T01:45:39.843Z,1008.60
2023-12-24T01:46:08.475Z,1008.60
2023-12-24T01:46:39.281Z,1008.60
2023-12-24T01:47:10.514Z,1008.60
2023-12-24T01:47:40.720Z,1008.50
2023-12-24T01:48:44.529Z,1008.60
2023-12-24T01:49:16.277Z,1008.60
2023-12-24T01:49:45.247Z,1008.60
2023-12-24T01:50:17.855Z,1008.60
2023-12-24T01:51:02.557Z,1008.60
2023-12-24T01:51:15.958Z,1008.60
2023-12-24T01:51:48.170Z,1008.60
2023-12-24T01:52:22.451Z,1008.60
2023-12-24T01:52:51.703Z,1008.50
2023-12-24T01:53:22.579Z,1008.50
2023-12-24T01:53:54.313Z,1008.60
2023-12-24T01:54:23.903Z,1008.60
2023-12-24T01:54:54.969Z,1008.40
2023-12-24T01:55:30.201Z,1008.40
2023-12-24T01:55:57.731Z,1008.50
2023-12-24T01:56:28.062Z,1008.50
2023-12-24T01:56:57.198Z,1008.50
2023-12-24T01:57:29.326Z,1008.50
2023-12-24T01:58:01.430Z,1008.70
2023-12-24T01:58:33.945Z,1008.70
2023-12-24T01:59:02.657Z,1008.60
2023-12-24T01:59:35.442Z,1008.60
2023-12-24T02:00:08.772Z,1008.80
2023-12-24T02:00:38.732Z,1008.70
2023-12-24T02:01:08.282Z,1008.70
2023-12-24T02:01:38.184Z,1008.50
2023-12-24T02:02:08.014Z,1008.50
2023-12-24T02:02:38.832Z,1008.70
2023-12-24T02:03:12.504Z,1008.70
2023-12-24T02:03:45.613Z,1008.60
2023-12-24T02:04:16.279Z,1008.60
2023-12-24T02:04:44.939Z,1008.70
2023-12-24T02:05:16.788Z,1008.70
2023-12-24T02:05:48.846Z,1008.30
2023-12-24T02:06:18.633Z,1008.30
2023-12-24T02:07:08.033Z,1008.70
2023-12-24T02:07:52.838Z,1008.60
2023-12-24T02:08:23.046Z,1008.60
2023-12-24T02:08:55.027Z,1008.60
2023-12-24T02:09:24.126Z,1008.60
2023-12-24T02:09:54.731Z,1008.70
2023-12-24T02:10:27.919Z,1008.70
2023-12-24T02:11:28.654Z,1008.50
2023-12-24T02:11:59.936Z,1008.60
2023-12-24T02:12:31.243Z,1008.60
2023-12-24T02:13:03.249Z,1008.60
2023-12-24T02:13:32.260Z,1008.60
2023-12-24T02:14:06.051Z,1008.60
2023-12-24T02:14:35.957Z,1008.60
2023-12-24T02:15:11.213Z,1008.70
2023-12-24T02:15:40.334Z,1008.60
2023-12-24T02:16:24.642Z,1008.60
2023-12-24T02:16:38.847Z,1008.70
2023-12-24T02:17:12.106Z,1008.70
2023-12-24T02:17:40.080Z,1008.50
2023-12-24T02:18:21.724Z,1008.50
2023-12-24T02:18:43.848Z,1008.70
2023-12-24T02:19:16.179Z,1008.70
2023-12-24T02:19:45.584Z,1008.60
2023-12-24T02:20:19.077Z,1008.60
2023-12-24T02:20:48.260Z,1008.70
2023-12-24T02:21:17.291Z,1008.70
2023-12-24T02:21:48.208Z,1008.60
2023-12-24T02:22:20.789Z,1008.60
2023-12-24T02:22:52.901Z,1008.50
2023-12-24T02:23:38.946Z,1008.60
2023-12-24T02:23:53.815Z,1008.60
2023-12-24T02:24:24.963Z,1008.60
2023-12-24T02:24:54.198Z,1008.70
2023-12-24T02:25:26.011Z,1008.70
2023-12-24T02:25:57.553Z,1008.50
2023-12-24T02:26:27.833Z,1008.50
2023-12-24T02:26:57.537Z,1008.60
2023-12-24T02:27:31.369Z,1008.60
2023-12-24T02:27:59.878Z,1008.50
2023-12-24T02:28:30.519Z,1008.50
2023-12-24T02:29:05.853Z,1008.50
2023-12-24T02:29:35.537Z,1008.50
2023-12-24T02:30:09.025Z,1008.19
2023-12-24T02:30:40.914Z,1008.19
2023-12-24T02:31:09.612Z,1008.60
2023-12-24T02:31:40.562Z,1008.30
2023-12-24T02:32:27.074Z,1008.30
2023-12-24T02:32:41.862Z,1008.30
2023-12-24T02:33:13.048Z,1008.30
2023-12-24T02:33:42.072Z,1008.40
2023-12-24T02:34:17.026Z,1008.40
2023-12-24T02:34:43.484Z,1008.50
2023-12-24T02:35:17.775Z,1008.50
2023-12-24T02:35:47.797Z,1008.40
2023-12-24T02:36:18.080Z,1008.40
2023-12-24T02:36:49.618Z,1008.40
2023-12-24T02:37:18.460Z,1008.40
2023-12-24T02:38:20.603Z,1008.50
2023-12-24T02:38:53.718Z,1008.40
2023-12-24T02:39:20.820Z,1008.40
2023-12-24T02:39:52.548Z,1008.60
2023-12-24T02:40:28.302Z,1008.60
2023-12-24T02:41:15.367Z,1008.60
2023-12-24T02:41:28.054Z,1008.60
2023-12-24T02:41:59.299Z,1008.40
2023-12-24T02:42:33.081Z,1008.40
2023-12-24T02:42:58.867Z,1008.60
2023-12-24T02:43:30.232Z,1008.60
2023-12-24T02:44:03.642Z,1008.50
2023-12-24T02:44:32.694Z,1008.50
2023-12-24T02:45:06.512Z,1008.40
2023-12-24T02:45:38.025Z,1008.40
2023-12-24T02:46:06.192Z,1008.40
2023-12-24T02:46:34.863Z,1008.40
2023-12-24T02:47:09.533Z,1008.40
2023-12-24T02:48:12.254Z,1008.09
2023-12-24T02:48:43.496Z,1008.60
2023-12-24T02:49:13.601Z,1008.60
2023-12-24T02:50:01.847Z,1008.40
2023-12-24T02:50:17.940Z,1008.40
2023-12-24T02:50:46.161Z,1008.40
2023-12-24T02:51:17.801Z,1008.40
2023-12-24T02:51:49.658Z,1008.50
2023-12-24T02:52:19.125Z,1008.50
2023-12-24T02:52:49.038Z,1008.50
2023-12-24T02:53:20.496Z,1008.50
2023-12-24T02:54:08.570Z,1008.40
2023-12-24T02:54:21.393Z,1008.40
2023-12-24T02:54:52.841Z,1008.50
2023-12-24T02:55:28.096Z,1008.50
2023-12-24T02:55:56.494Z,1008.50
2023-12-24T02:56:27.017Z,1008.50
2023-12-24T02:56:57.620Z,1008.40
2023-12-24T02:57:36.198Z,1008.40
2023-12-24T02:57:59.880Z,1008.60
2023-12-24T02:58:30.261Z,1008.60
2023-12-24T02:59:00.901Z,1008.50
2023-12-24T02:59:30.968Z,1008.50
2023-12-24T03:00:05.452Z,1008.50
2023-12-24T03:00:38.132Z,1008.50
2023-12-24T03:01:05.351Z,1008.50
2023-12-24T03:01:35.809Z,1008.50
2023-12-24T03:02:09.234Z,1008.40
2023-12-24T03:02:39.224Z,1008.30
2023-12-24T03:03:08.918Z,1008.30
2023-12-24T03:03:41.054Z,1008.60
2023-12-24T03:04:12.711Z,1008.60
2023-12-24T03:04:41.849Z,1008.40
2023-12-24T03:05:12.941Z,1008.40
2023-12-24T03:05:47.691Z,1008.09
2023-12-24T03:06:14.719Z,1008.09
2023-12-24T03:06:46.356Z,1008.19
2023-12-24T03:07:16.148Z,1008.19
2023-12-24T03:07:48.057Z,1008.30
2023-12-24T03:08:19.072Z,1008.30
2023-12-24T03:08:51.010Z,1008.19
2023-12-24T03:09:19.870Z,1008.19
2023-12-24T03:09:50.873Z,1008.30
2023-12-24T03:10:27.948Z,1008.30
2023-12-24T03:10:59.317Z,1008.30
2023-12-24T03:11:25.659Z,1008.30
2023-12-24T03:11:56.250Z,1008.19
2023-12-24T03:12:30.333Z,1008.19
2023-12-24T03:12:57.841Z,1008.19
2023-12-24T03:13:28.470Z,1008.19
2023-12-24T03:14:02.350Z,1007.99
2023-12-24T03:14:30.965Z,1007.99
2023-12-24T03:15:02.572Z,1008.09
2023-12-24T03:15:51.419Z,1008.09
2023-12-24T03:16:03.864Z,1008.09
2023-12-24T03:16:35.917Z,1008.09
2023-12-24T03:17:09.411Z,1008.19
2023-12-24T03:17:36.589Z,1008.30
2023-12-24T03:18:07.736Z,1008.30
2023-12-24T03:18:40.414Z,1008.19
2023-12-24T03:19:10.648Z,1008.19
2023-12-24T03:19:40.800Z,1008.09
2023-12-24T03:20:16.500Z,1008.09
2023-12-24T03:20:42.593Z,1008.09
2023-12-24T03:21:14.201Z,1008.09
2023-12-24T03:21:48.645Z,1008.09
2023-12-24T03:22:18.182Z,1008.09
2023-12-24T03:22:46.981Z,1008.50
2023-12-24T03:23:18.564Z,1008.50
2023-12-24T03:23:51.078Z,1008.19
2023-12-24T03:24:20.457Z,1008.19
2023-12-24T03:24:50.376Z,1007.79
2023-12-24T03:25:27.011Z,1007.79
2023-12-24T03:25:53.954Z,1008.09
2023-12-24T03:26:23.901Z,1008.09
2023-12-24T03:26:57.776Z,1007.99
2023-12-24T03:27:25.234Z,1007.99
2023-12-24T03:27:56.187Z,1008.30
2023-12-24T03:28:32.216Z,1008.30
2023-12-24T03:28:59.644Z,1008.09
2023-12-24T03:29:29.503Z,1008.09
2023-12-24T03:29:59.557Z,1008.09
2023-12-24T03:30:34.128Z,1008.09
2023-12-24T03:31:01.464Z,1008.30
2023-12-24T03:31:34.172Z,1008.30
2023-12-24T03:32:06.508Z,1008.19
2023-12-24T03:32:37.207Z,1008.19
2023-12-24T03:33:07.844Z,1007.79
2023-12-24T03:33:40.313Z,1008.09
2023-12-24T03:34:13.270Z,1008.09
2023-12-24T03:34:40.546Z,1007.99
2023-12-24T03:35:16.009Z,1007.99
2023-12-24T03:35:46.485Z,1007.79
2023-12-24T03:36:14.194Z,1007.79
2023-12-24T03:36:47.105Z,1007.79
2023-12-24T03:37:16.110Z,1007.79
2023-12-24T03:37:46.490Z,1007.99
2023-12-24T03:38:17.437Z,1007.99
2023-12-24T03:38:49.591Z,1007.79
2023-12-24T03:39:51.413Z,1008.19
2023-12-24T03:40:23.880Z,1008.19
2023-12-24T03:40:53.235Z,1007.58
2023-12-24T03:41:22.757Z,1007.58
2023-12-24T03:41:55.968Z,1007.99
2023-12-24T03:42:24.476Z,1007.99
2023-12-24T03:42:56.360Z,1007.79
2023-12-24T03:43:28.561Z,1007.79
2023-12-24T03:43:58.455Z,1007.79
2023-12-24T03:44:30.140Z,1007.79
2023-12-24T03:44:59.684Z,1007.79
2023-12-24T03:45:37.283Z,1007.79
2023-12-24T03:46:04.237Z,1007.79
2023-12-24T03:46:33.631Z,1007.79
2023-12-24T03:47:06.466Z,1007.69
2023-12-24T03:47:37.386Z,1007.69
2023-12-24T03:48:06.732Z,1007.89
2023-12-24T03:48:39.578Z,1007.69
2023-12-24T03:49:08.497Z,1007.69
2023-12-24T03:49:38.769Z,1007.58
2023-12-24T03:50:14.459Z,1007.58
2023-12-24T03:50:43.085Z,1007.69
2023-12-24T03:51:13.986Z,1007.69
2023-12-24T03:52:03.989Z,1007.58
2023-12-24T03:52:18.313Z,1007.58
2023-12-24T03:52:46.305Z,1007.58
2023-12-24T03:53:17.314Z,1007.58
2023-12-24T03:53:50.892Z,1007.48
2023-12-24T03:54:18.964Z,1007.48
2023-12-24T03:54:52.679Z,1007.48
2023-12-24T03:55:23.426Z,1007.48
2023-12-24T03:55:51.639Z,1007.58
2023-12-24T03:56:54.632Z,1007.48
2023-12-24T03:57:27.413Z,1007.48
2023-12-24T03:57:56.193Z,1007.42
2023-12-24T03:59:03.395Z,1007.42
2023-12-24T03:59:33.743Z,1007.58
2023-12-24T03:59:58.321Z,1007.42
2023-12-24T04:00:35.193Z,1007.42
2023-12-24T04:01:01.179Z,1007.58
2023-12-24T04:01:49.143Z,1007.42
2023-12-24T04:02:03.824Z,1007.42
2023-12-24T04:02:32.457Z,1007.42
2023-12-24T04:03:03.331Z,1007.31
2023-12-24T04:03:33.911Z,1007.31
2023-12-24T04:04:06.099Z,1007.21
2023-12-24T04:04:36.448Z,1007.21
2023-12-24T04:05:09.082Z,1007.21
2023-12-24T04:05:39.151Z,1007.42
2023-12-24T04:06:09.967Z,1007.42
2023-12-24T04:06:40.129Z,1007.42
2023-12-24T04:07:10.753Z,1007.42
2023-12-24T04:07:43.410Z,1007.48
2023-12-24T04:08:44.575Z,1007.42
2023-12-24T04:09:16.346Z,1007.42
2023-12-24T04:09:45.952Z,1007.48
2023-12-24T04:10:22.976Z,1007.48
2023-12-24T04:11:09.572Z,1007.42
2023-12-24T04:11:21.145Z,1007.42
2023-12-24T04:11:51.223Z,1007.31
2023-12-24T04:12:55.308Z,1007.58
2023-12-24T04:13:23.302Z,1007.58
2023-12-24T04:13:56.135Z,1007.58
2023-12-24T04:14:25.206Z,1007.58
2023-12-24T04:14:56.160Z,1007.69
2023-12-24T04:15:29.321Z,1007.69
2023-12-24T04:15:59.670Z,1007.58
2023-12-24T04:16:30.281Z,1007.58
2023-12-24T04:17:01.234Z,1007.58
2023-12-24T04:17:33.352Z,1007.58
2023-12-24T04:18:04.004Z,1007.58
2023-12-24T04:18:33.995Z,1007.58
2023-12-24T04:19:05.693Z,1007.58
2023-12-24T04:19:53.232Z,1007.69
2023-12-24T04:20:09.268Z,1007.69
2023-12-24T04:20:40.718Z,1007.58
2023-12-24T04:21:08.584Z,1007.58
2023-12-24T04:22:11.026Z,1007.69
2023-12-24T04:22:41.971Z,1007.58
2023-12-24T04:23:13.225Z,1007.58
2023-12-24T04:23:46.379Z,1007.58
2023-12-24T04:24:16.037Z,1007.58
2023-12-24T04:24:46.264Z,1007.58
2023-12-24T04:25:20.162Z,1007.58
2023-12-24T04:25:48.733Z,1007.48
2023-12-24T04:26:19.206Z,1007.48
2023-12-24T04:26:50.873Z,1007.48
2023-12-24T04:27:20.605Z,1007.48
2023-12-24T04:27:53.465Z,1007.58
2023-12-24T04:28:23.775Z,1007.58
2023-12-24T04:28:55.693Z,1007.58
2023-12-24T04:29:25.717Z,1007.58
2023-12-24T04:29:55.680Z,1007.48
2023-12-24T04:30:31.878Z,1007.48
2023-12-24T04:31:29.591Z,1007.58
2023-12-24T04:31:59.721Z,1007.48
2023-12-24T04:32:33.926Z,1007.48
2023-12-24T04:33:04.130Z,1007.79
2023-12-24T04:33:32.224Z,1007.79
2023-12-24T04:34:04.190Z,1007.58
2023-12-24T04:34:36.129Z,1007.58
2023-12-24T04:35:08.137Z,1007.58
2023-12-24T04:35:37.288Z,1007.69
2023-12-24T04:36:10.980Z,1007.69
2023-12-24T04:36:38.990Z,1007.79
2023-12-24T04:37:09.495Z,1007.79
2023-12-24T04:37:41.614Z,1007.48
2023-12-24T04:38:11.854Z,1007.48
2023-12-24T04:38:43.473Z,1007.58
2023-12-24T04:39:14.477Z,1007.58
2023-12-24T04:39:47.069Z,1007.79
2023-12-24T04:40:20.239Z,1007.79
2023-12-24T04:40:47.703Z,1007.69
2023-12-24T04:41:38.054Z,1007.69
2023-12-24T04:41:50.237Z,1007.79
2023-12-24T04:42:20.043Z,1007.79
2023-12-24T04:42:51.926Z,1007.79
2023-12-24T04:43:24.155Z,1007.79
2023-12-24T04:43:52.500Z,1008.09
2023-12-24T04:44:23.935Z,1008.09
2023-12-24T04:44:55.374Z,1007.79
2023-12-24T04:45:26.115Z,1007.79
2023-12-24T04:45:57.463Z,1007.69
2023-12-24T04:46:29.869Z,1007.69
2023-12-24T04:46:58.242Z,1007.79
2023-12-24T04:47:31.191Z,1007.79
2023-12-24T04:48:01.231Z,1007.58
2023-12-24T04:48:36.216Z,1007.58
2023-12-24T04:49:03.279Z,1007.58
2023-12-24T04:49:34.767Z,1007.58
2023-12-24T04:50:07.530Z,1007.48
2023-12-24T04:50:38.388Z,1007.58
2023-12-24T04:51:08.254Z,1007.58
2023-12-24T04:51:40.467Z,1007.58
2023-12-24T04:52:08.702Z,1007.58
2023-12-24T04:52:40.335Z,1007.58
2023-12-24T04:53:12.677Z,1007.58
2023-12-24T04:53:41.246Z,1007.58
2023-12-24T04:54:15.043Z,1007.58
2023-12-24T04:54:44.957Z,1007.42
2023-12-24T04:55:15.912Z,1007.42
2023-12-24T04:55:46.518Z,1007.42
2023-12-24T04:56:16.973Z,1007.42
2023-12-24T04:56:47.616Z,1007.58
2023-12-24T04:57:20.921Z,1007.58
2023-12-24T04:57:51.514Z,1007.48
2023-12-24T04:58:20.792Z,1007.48
2023-12-24T04:58:53.464Z,1007.48
2023-12-24T04:59:24.114Z,1007.48
2023-12-24T04:59:53.495Z,1007.48
2023-12-24T05:00:29.043Z,1007.48
2023-12-24T05:00:57.282Z,1007.48
2023-12-24T05:01:27.296Z,1007.48
2023-12-24T05:02:07.025Z,1007.58
2023-12-24T05:02:28.642Z,1007.58
2023-12-24T05:03:02.281Z,1007.79
2023-12-24T05:03:32.909Z,1007.79
2023-12-24T05:04:03.121Z,1007.58
2023-12-24T05:04:36.117Z,1007.58
2023-12-24T05:05:05.582Z,1007.69
2023-12-24T05:05:36.243Z,1007.69
2023-12-24T05:06:07.571Z,1007.79
2023-12-24T05:06:36.648Z,1007.69
2023-12-24T05:07:07.828Z,1007.69
2023-12-24T05:07:41.015Z,1007.48
2023-12-24T05:08:10.163Z,1007.48
2023-12-24T05:08:40.805Z,1007.69
2023-12-24T05:09:12.827Z,1007.69
2023-12-24T05:09:46.335Z,1007.69
2023-12-24T05:10:17.692Z,1007.69
2023-12-24T05:10:47.140Z,1007.48
2023-12-24T05:11:19.289Z,1007.48
2023-12-24T05:11:48.064Z,1007.69
2023-12-24T05:12:21.571Z,1007.69
2023-12-24T05:12:51.463Z,1007.58
2023-12-24T05:13:20.672Z,1007.58
2023-12-24T05:13:51.220Z,1007.48
2023-12-24T05:14:22.362Z,1007.48
2023-12-24T05:14:52.440Z,1007.48
2023-12-24T05:15:29.530Z,1007.48
2023-12-24T05:15:56.283Z,1007.58
2023-12-24T05:16:26.785Z,1007.58
2023-12-24T05:16:56.686Z,1007.48
2023-12-24T05:17:30.053Z,1007.48
2023-12-24T05:18:00.748Z,1007.48
2023-12-24T05:18:30.153Z,1007.48
2023-12-24T05:19:02.077Z,1007.58
2023-12-24T05:19:35.103Z,1007.58
2023-12-24T05:20:04.779Z,1007.58
2023-12-24T05:20:34.075Z,1007.58
2023-12-24T05:21:08.664Z,1007.48
2023-12-24T05:21:38.614Z,1007.69
2023-12-24T05:22:21.580Z,1007.69
2023-12-24T05:23:04.901Z,1007.42
2023-12-24T05:23:41.558Z,1007.58
2023-12-24T05:24:14.436Z,1007.58
2023-12-24T05:24:45.263Z,1007.48
2023-12-24T05:25:16.201Z,1007.48
2023-12-24T05:25:48.121Z,1007.42
2023-12-24T05:26:50.773Z,1007.58
2023-12-24T05:27:20.053Z,1007.58
2023-12-24T05:27:51.637Z,1007.42
2023-12-24T05:28:21.442Z,1007.42
2023-12-24T05:28:54.861Z,1007.58
2023-12-24T05:29:23.007Z,1007.58
2023-12-24T05:29:53.685Z,1007.58
2023-12-24T05:30:31.297Z,1007.58
2023-12-24T05:30:57.436Z,1007.69
2023-12-24T05:31:50.448Z,1007.58
2023-12-24T05:32:48.188Z,1007.58
2023-12-24T05:32:59.699Z,1007.89
2023-12-24T05:33:31.941Z,1007.89
2023-12-24T05:34:00.817Z,1007.69
2023-12-24T05:34:31.202Z,1007.69
2023-12-24T05:35:56.785Z,1007.79
2023-12-24T05:36:08.526Z,1007.69
2023-12-24T05:36:40.169Z,1007.69
2023-12-24T05:37:40.104Z,1007.69
2023-12-24T05:38:41.619Z,1007.79
2023-12-24T05:39:15.368Z,1007.79
2023-12-24T05:39:44.322Z,1007.69
2023-12-24T05:40:15.782Z,1007.69
2023-12-24T05:40:46.101Z,1007.58
2023-12-24T05:41:18.765Z,1007.58
2023-12-24T05:41:48.140Z,1007.89
2023-12-24T05:42:19.372Z,1007.89
2023-12-24T05:42:50.814Z,1007.89
2023-12-24T05:43:20.616Z,1007.89
2023-12-24T05:43:50.719Z,1007.89
2023-12-24T05:44:21.241Z,1007.89
2023-12-24T05:44:53.308Z,1007.89
2023-12-24T05:45:28.694Z,1007.89
2023-12-24T05:45:55.806Z,1007.99
2023-12-24T05:46:25.772Z,1007.99
2023-12-24T05:47:28.217Z,1007.79
2023-12-24T05:48:00.840Z,1007.99
2023-12-24T05:48:31.861Z,1007.99
2023-12-24T05:49:00.547Z,1007.79
2023-12-24T05:49:30.929Z,1007.79
2023-12-24T05:50:05.322Z,1007.89
2023-12-24T05:50:37.400Z,1007.89
2023-12-24T05:51:07.352Z,1008.09
2023-12-24T05:51:34.228Z,1008.09
2023-12-24T05:52:08.448Z,1007.79
2023-12-24T05:52:37.459Z,1007.79
2023-12-24T05:53:09.260Z,1007.79
2023-12-24T05:53:47.860Z,1007.89
2023-12-24T05:54:11.008Z,1007.89
2023-12-24T05:54:40.532Z,1007.79
2023-12-24T05:55:12.534Z,1007.79
2023-12-24T05:55:44.516Z,1007.99
2023-12-24T05:56:14.261Z,1007.99
2023-12-24T05:56:42.814Z,1007.79
2023-12-24T05:57:16.065Z,1007.79
2023-12-24T05:58:04.978Z,1007.69
2023-12-24T05:58:16.988Z,1007.69
2023-12-24T05:58:49.298Z,1007.79
2023-12-24T05:59:20.355Z,1007.79
2023-12-24T05:59:52.738Z,1007.99
2023-12-24T06:00:27.194Z,1007.99
2023-12-24T06:00:54.284Z,1007.48
2023-12-24T06:01:24.300Z,1007.48
2023-12-24T06:01:54.952Z,1007.89
2023-12-24T06:02:26.227Z,1007.89
2023-12-24T06:02:56.424Z,1007.69
2023-12-24T06:03:29.344Z,1007.69
2023-12-24T06:04:02.009Z,1007.31
2023-12-24T06:04:29.106Z,1007.31
2023-12-24T06:04:59.440Z,1007.69
2023-12-24T06:05:37.679Z,1007.69
2023-12-24T06:06:13.578Z,1007.58
2023-12-24T06:06:35.811Z,1007.58
2023-12-24T06:07:03.115Z,1007.69
2023-12-24T06:07:34.887Z,1007.58
2023-12-24T06:08:12.777Z,1007.58
2023-12-24T06:08:40.153Z,1007.58
2023-12-24T06:09:07.918Z,1007.58
2023-12-24T06:09:40.903Z,1007.42
2023-12-24T06:10:12.320Z,1007.42
2023-12-24T06:10:43.898Z,1007.69
2023-12-24T06:11:13.103Z,1007.69
2023-12-24T06:11:44.805Z,1007.79
2023-12-24T06:12:16.630Z,1007.79
2023-12-24T06:12:48.494Z,1007.69
2023-12-24T06:13:21.091Z,1007.69
2023-12-24T06:14:21.945Z,1007.58
2023-12-24T06:14:55.188Z,1007.69
2023-12-24T06:15:32.478Z,1007.69
2023-12-24T06:15:53.839Z,1007.69
2023-12-24T06:16:42.667Z,1007.79
2023-12-24T06:16:57.770Z,1007.79
2023-12-24T06:17:26.821Z,1007.79
2023-12-24T06:17:57.492Z,1007.69
2023-12-24T06:18:29.522Z,1007.69
2023-12-24T06:19:00.143Z,1007.48
2023-12-24T06:19:29.931Z,1007.48
2023-12-24T06:20:39.549Z,1007.69
2023-12-24T06:21:05.339Z,1007.58
2023-12-24T06:21:32.499Z,1007.58
2023-12-24T06:22:02.248Z,1007.48
2023-12-24T06:22:35.721Z,1007.48
2023-12-24T06:23:48.509Z,1007.48
2023-12-24T06:24:13.778Z,1007.48
2023-12-24T06:24:40.651Z,1007.69
2023-12-24T06:25:15.234Z,1007.69
2023-12-24T06:25:41.892Z,1007.48
2023-12-24T06:26:13.416Z,1007.48
2023-12-24T06:26:44.995Z,1007.69
2023-12-24T06:27:14.103Z,1007.69
2023-12-24T06:27:45.438Z,1007.58
2023-12-24T06:28:15.235Z,1007.58